createdAt,value
2023-03-01T00:00:14.893Z,-5.20
2023-03-01T00:00:44.636Z,-5.20
2023-03-01T00:01:15.762Z,-5.20
2023-03-01T00:01:46.661Z,-5.20
2023-03-01T00:02:18.630Z,-5.20
2023-03-01T00:02:49.880Z,-5.20
2023-03-01T00:03:21.348Z,-5.20
2023-03-01T00:03:51.348Z,-5.20
2023-03-01T00:04:22.153Z,-5.20
2023-03-01T00:04:52.613Z,-5.10
2023-03-01T00:05:23.468Z,-5.10
2023-03-01T00:05:55.437Z,-5.00
2023-03-01T00:06:25.753Z,-4.90
2023-03-01T00:06:58.116Z,-4.90
2023-03-01T00:07:28.971Z,-4.90
2023-03-01T00:07:59.747Z,-4.90
2023-03-01T00:08:30.650Z,-4.90
2023-03-01T00:09:34.344Z,-4.90
2023-03-01T00:10:19.957Z,-4.90
2023-03-01T00:10:33.520Z,-4.90
2023-03-01T00:11:35.773Z,-4.90
2023-03-01T00:12:06.646Z,-4.90
2023-03-01T00:12:38.175Z,-4.90
2023-03-01T00:13:09.297Z,-4.90
2023-03-01T00:13:40.719Z,-4.90
2023-03-01T00:14:11.405Z,-4.90
2023-03-01T00:14:42.398Z,-4.90
2023-03-01T00:15:12.827Z,-4.90
2023-03-01T00:15:43.607Z,-4.90
2023-03-01T00:16:14.708Z,-4.90
2023-03-01T00:16:45.763Z,-4.90
2023-03-01T00:17:16.857Z,-4.90
2023-03-01T00:17:47.681Z,-4.90
2023-03-01T00:18:19.554Z,-4.90
2023-03-01T00:18:50.861Z,-4.80
2023-03-01T00:19:21.388Z,-4.80
2023-03-01T00:19:52.317Z,-4.80
2023-03-01T00:20:22.873Z,-4.80
2023-03-01T00:20:53.446Z,-4.90
2023-03-01T00:21:24.804Z,-4.90
2023-03-01T00:21:55.475Z,-4.90
2023-03-01T00:22:27.045Z,-4.90
2023-03-01T00:22:59.656Z,-4.90
2023-03-01T00:23:29.976Z,-4.90
2023-03-01T00:24:00.943Z,-4.90
2023-03-01T00:24:31.752Z,-4.90
2023-03-01T00:25:02.712Z,-4.90
2023-03-01T00:25:38.087Z,-5.00
2023-03-01T00:26:03.963Z,-5.00
2023-03-01T00:26:34.980Z,-5.00
2023-03-01T00:27:05.876Z,-5.00
2023-03-01T00:27:36.743Z,-5.00
2023-03-01T00:28:08.190Z,-5.00
2023-03-01T00:28:39.377Z,-5.00
2023-03-01T00:29:11.420Z,-5.00
2023-03-01T00:29:41.484Z,-5.00
2023-03-01T00:30:12.817Z,-5.10
2023-03-01T00:30:43.219Z,-5.10
2023-03-01T00:31:13.673Z,-5.10
2023-03-01T00:31:44.867Z,-5.10
2023-03-01T00:32:15.889Z,-5.10
2023-03-01T00:32:47.007Z,-5.20
2023-03-01T00:33:18.104Z,-5.20
2023-03-01T00:33:49.698Z,-5.20
2023-03-01T00:34:21.557Z,-5.20
2023-03-01T00:34:51.742Z,-5.20
2023-03-01T00:35:22.377Z,-5.20
2023-03-01T00:35:53.048Z,-5.20
2023-03-01T00:36:23.855Z,-5.20
2023-03-01T00:37:12.301Z,-5.30
2023-03-01T00:37:26.569Z,-5.30
2023-03-01T00:37:56.969Z,-5.30
2023-03-01T00:38:29.364Z,-5.30
2023-03-01T00:38:59.473Z,-5.30
2023-03-01T00:39:31.322Z,-5.30
2023-03-01T00:40:01.901Z,-5.30
2023-03-01T00:40:32.111Z,-5.30
2023-03-01T00:41:02.927Z,-5.30
2023-03-01T00:41:33.517Z,-5.30
2023-03-01T00:42:05.067Z,-5.30
2023-03-01T00:42:35.898Z,-5.20
2023-03-01T00:43:06.973Z,-5.20
2023-03-01T00:43:38.227Z,-5.20
2023-03-01T00:44:09.581Z,-5.20
2023-03-01T00:44:41.057Z,-5.20
2023-03-01T00:45:11.835Z,-5.20
2023-03-01T00:45:42.236Z,-5.20
2023-03-01T00:46:13.054Z,-5.20
2023-03-01T00:46:43.818Z,-5.20
2023-03-01T00:47:15.165Z,-5.20
2023-03-01T00:48:17.046Z,-5.20
2023-03-01T00:48:50.622Z,-5.20
2023-03-01T00:49:19.773Z,-5.20
2023-03-01T00:49:51.051Z,-5.20
2023-03-01T00:50:21.968Z,-5.20
2023-03-01T00:50:52.275Z,-5.20
2023-03-01T00:51:22.774Z,-5.10
2023-03-01T00:51:53.704Z,-5.10
2023-03-01T00:52:25.041Z,-5.10
2023-03-01T00:52:55.565Z,-5.10
2023-03-01T00:53:27.460Z,-5.10
2023-03-01T00:53:58.555Z,-5.10
2023-03-01T00:54:29.922Z,-5.10
2023-03-01T00:55:17.179Z,-5.00
2023-03-01T00:55:32.165Z,-5.00
2023-03-01T00:56:03.117Z,-5.00
2023-03-01T00:56:33.463Z,-5.00
2023-03-01T00:57:03.825Z,-5.00
2023-03-01T00:57:35.181Z,-5.00
2023-03-01T00:58:05.830Z,-4.90
2023-03-01T00:58:36.998Z,-4.90
2023-03-01T00:59:07.767Z,-4.90
2023-03-01T00:59:39.805Z,-4.90
2023-03-01T01:00:11.396Z,-4.90
2023-03-01T01:00:52.063Z,-4.90
2023-03-01T01:01:13.288Z,-4.90
2023-03-01T01:01:43.100Z,-4.90
2023-03-01T01:02:19.242Z,-4.90
2023-03-01T01:02:45.061Z,-4.90
2023-03-01T01:03:15.673Z,-4.90
2023-03-01T01:04:04.218Z,-4.90
2023-03-01T01:04:17.891Z,-4.90
2023-03-01T01:04:49.462Z,-4.80
2023-03-01T01:05:20.905Z,-4.80
2023-03-01T01:05:51.917Z,-4.80
2023-03-01T01:06:22.800Z,-4.80
2023-03-01T01:06:52.926Z,-4.80
2023-03-01T01:07:24.382Z,-4.80
2023-03-01T01:08:02.541Z,-4.80
2023-03-01T01:12:34.884Z,-4.80
2023-03-01T01:13:13.869Z,-4.80
2023-03-01T01:13:37.385Z,-4.80
2023-03-01T01:14:08.046Z,-4.80
2023-03-01T01:14:38.609Z,-4.80
2023-03-01T01:15:12.711Z,-4.80
2023-03-01T01:15:42.781Z,-4.80
2023-03-01T01:16:12.127Z,-4.80
2023-03-01T01:16:42.039Z,-4.80
2023-03-01T01:17:13.038Z,-4.80
2023-03-01T01:17:46.931Z,-4.70
2023-03-01T01:18:17.522Z,-4.70
2023-03-01T01:18:46.505Z,-4.70
2023-03-01T01:19:18.273Z,-4.70
2023-03-01T01:19:51.712Z,-4.70
2023-03-01T01:20:19.865Z,-4.70
2023-03-01T01:20:50.257Z,-4.60
2023-03-01T01:21:25.086Z,-4.60
2023-03-01T01:22:10.095Z,-4.60
2023-03-01T01:22:25.043Z,-4.60
2023-03-01T01:22:53.790Z,-4.60
2023-03-01T01:23:25.081Z,-4.60
2023-03-01T01:23:58.346Z,-4.60
2023-03-01T01:24:27.957Z,-4.60
2023-03-01T01:24:59.213Z,-4.60
2023-03-01T01:25:29.894Z,-4.50
2023-03-01T01:26:00.959Z,-4.50
2023-03-01T01:26:32.303Z,-4.50
2023-03-01T01:27:02.269Z,-4.50
2023-03-01T01:27:33.086Z,-4.50
2023-03-01T01:28:03.928Z,-4.50
2023-03-01T01:28:34.769Z,-4.50
2023-03-01T01:29:05.934Z,-4.50
2023-03-01T01:30:10.148Z,-4.50
2023-03-01T01:30:57.293Z,-4.50
2023-03-01T01:31:11.110Z,-4.50
2023-03-01T01:31:41.276Z,-4.50
2023-03-01T01:32:12.181Z,-4.50
2023-03-01T01:32:43.439Z,-4.50
2023-03-01T01:33:14.136Z,-4.50
2023-03-01T01:33:45.613Z,-4.50
2023-03-01T01:34:17.996Z,-4.50
2023-03-01T01:34:48.194Z,-4.50
2023-03-01T01:35:19.417Z,-4.40
2023-03-01T01:35:50.485Z,-4.40
2023-03-01T01:36:38.636Z,-4.40
2023-03-01T01:36:52.059Z,-4.40
2023-03-01T01:37:22.066Z,-4.40
2023-03-01T01:37:53.388Z,-4.40
2023-03-01T01:38:24.149Z,-4.40
2023-03-01T01:38:55.957Z,-4.40
2023-03-01T01:39:25.954Z,-4.40
2023-03-01T01:39:57.998Z,-4.30
2023-03-01T01:40:34.860Z,-4.30
2023-03-01T01:41:00.069Z,-4.30
2023-03-01T01:41:30.779Z,-4.30
2023-03-01T01:42:01.498Z,-4.30
2023-03-01T01:42:32.425Z,-4.30
2023-03-01T01:43:03.047Z,-4.30
2023-03-01T01:43:34.367Z,-4.20
2023-03-01T01:44:13.047Z,-4.20
2023-03-01T01:44:36.040Z,-4.20
2023-03-01T01:45:09.380Z,-4.10
2023-03-01T01:45:39.720Z,-4.10
2023-03-01T01:46:10.419Z,-4.10
2023-03-01T01:46:40.739Z,-4.10
2023-03-01T01:47:12.681Z,-4.10
2023-03-01T01:47:45.502Z,-4.10
2023-03-01T01:48:34.097Z,-4.10
2023-03-01T01:48:44.068Z,-4.10
2023-03-01T01:49:15.768Z,-4.10
2023-03-01T01:49:46.168Z,-4.10
2023-03-01T01:50:19.692Z,-4.00
2023-03-01T01:50:49.141Z,-4.00
2023-03-01T01:51:20.125Z,-4.00
2023-03-01T01:51:50.578Z,-4.00
2023-03-01T01:52:21.879Z,-4.00
2023-03-01T01:52:52.557Z,-4.00
2023-03-01T01:53:24.139Z,-4.00
2023-03-01T01:53:54.232Z,-4.00
2023-03-01T01:54:26.229Z,-3.90
2023-03-01T01:54:56.101Z,-3.90
2023-03-01T01:55:30.633Z,-3.90
2023-03-01T01:56:03.005Z,-3.90
2023-03-01T01:56:31.392Z,-3.90
2023-03-01T01:57:03.730Z,-3.90
2023-03-01T01:57:31.501Z,-3.90
2023-03-01T01:58:03.974Z,-3.90
2023-03-01T01:58:34.175Z,-3.90
2023-03-01T01:59:05.509Z,-3.90
2023-03-01T01:59:35.163Z,-3.90
2023-03-01T02:00:15.473Z,-3.90
2023-03-01T02:00:39.366Z,-3.90
2023-03-01T02:01:08.711Z,-3.90
2023-03-01T02:02:15.099Z,-3.90
2023-03-01T02:02:32.606Z,-3.90
2023-03-01T02:03:41.092Z,-3.90
2023-03-01T02:03:50.067Z,-3.90
2023-03-01T02:04:21.049Z,-3.90
2023-03-01T02:04:52.878Z,-3.90
2023-03-01T02:05:22.380Z,-3.90
2023-03-01T02:05:55.749Z,-3.90
2023-03-01T02:06:24.154Z,-3.90
2023-03-01T02:06:55.360Z,-3.90
2023-03-01T02:07:41.804Z,-3.90
2023-03-01T02:08:12.860Z,-3.90
2023-03-01T02:08:43.419Z,-3.90
2023-03-01T02:09:17.401Z,-3.90
2023-03-01T02:10:36.610Z,-3.90
2023-03-01T02:10:51.283Z,-3.90
2023-03-01T02:11:20.108Z,-3.90
2023-03-01T02:11:50.667Z,-3.90
2023-03-01T02:12:21.356Z,-3.90
2023-03-01T02:12:53.029Z,-3.90
2023-03-01T02:13:22.960Z,-3.90
2023-03-01T02:13:54.563Z,-3.90
2023-03-01T02:14:24.426Z,-3.90
2023-03-01T02:14:55.734Z,-3.90
2023-03-01T02:15:27.136Z,-3.90
2023-03-01T02:15:57.539Z,-3.90
2023-03-01T02:16:30.127Z,-4.00
2023-03-01T02:17:00.112Z,-4.00
2023-03-01T02:17:31.634Z,-4.00
2023-03-01T02:18:02.309Z,-4.00
2023-03-01T02:18:33.099Z,-4.00
2023-03-01T02:19:03.660Z,-4.00
2023-03-01T02:19:35.103Z,-4.00
2023-03-01T02:20:05.576Z,-4.00
2023-03-01T02:20:36.666Z,-4.00
2023-03-01T02:21:07.914Z,-4.00
2023-03-01T02:21:39.469Z,-4.00
2023-03-01T02:22:20.717Z,-4.00
2023-03-01T02:22:41.265Z,-4.00
2023-03-01T02:23:12.382Z,-4.00
2023-03-01T02:23:42.983Z,-4.00
2023-03-01T02:24:13.558Z,-4.10
2023-03-01T02:24:45.385Z,-4.10
2023-03-01T02:25:15.479Z,-4.10
2023-03-01T02:25:46.511Z,-4.10
2023-03-01T02:26:49.530Z,-4.10
2023-03-01T02:27:20.293Z,-4.10
2023-03-01T02:27:51.391Z,-4.10
2023-03-01T02:28:22.188Z,-4.10
2023-03-01T02:28:52.811Z,-4.10
2023-03-01T02:29:23.598Z,-4.10
2023-03-01T02:29:56.262Z,-4.10
2023-03-01T02:30:27.069Z,-4.10
2023-03-01T02:30:56.492Z,-4.10
2023-03-01T02:31:27.779Z,-4.10
2023-03-01T02:32:10.034Z,-4.10
2023-03-01T02:33:06.707Z,-4.10
2023-03-01T02:33:32.704Z,-4.10
2023-03-01T02:34:02.927Z,-4.20
2023-03-01T02:34:33.640Z,-4.20
2023-03-01T02:35:09.352Z,-4.20
2023-03-01T02:35:38.247Z,-4.20
2023-03-01T02:36:08.059Z,-4.20
2023-03-01T02:36:38.706Z,-4.20
2023-03-01T02:37:09.557Z,-4.20
2023-03-01T02:38:03.708Z,-4.20
2023-03-01T02:38:11.390Z,-4.20
2023-03-01T02:38:59.597Z,-4.20
2023-03-01T02:39:12.735Z,-4.20
2023-03-01T02:39:44.859Z,-4.20
2023-03-01T02:40:15.100Z,-4.20
2023-03-01T02:40:45.356Z,-4.20
2023-03-01T02:41:16.871Z,-4.20
2023-03-01T02:41:47.503Z,-4.20
2023-03-01T02:42:19.324Z,-4.20
2023-03-01T02:42:49.937Z,-4.20
2023-03-01T02:43:21.599Z,-4.20
2023-03-01T02:43:52.005Z,-4.20
2023-03-01T02:44:23.248Z,-4.20
2023-03-01T02:44:53.865Z,-4.20
2023-03-01T02:45:26.570Z,-4.20
2023-03-01T02:45:55.529Z,-4.20
2023-03-01T02:46:26.446Z,-4.20
2023-03-01T02:46:58.091Z,-4.20
2023-03-01T02:47:29.891Z,-4.20
2023-03-01T02:47:59.968Z,-4.20
2023-03-01T02:48:31.710Z,-4.20
2023-03-01T02:49:01.920Z,-4.20
2023-03-01T02:49:32.515Z,-4.20
2023-03-01T02:50:04.726Z,-4.20
2023-03-01T02:50:34.609Z,-4.20
2023-03-01T02:51:05.927Z,-4.20
2023-03-01T02:51:36.684Z,-4.20
2023-03-01T02:52:08.369Z,-4.20
2023-03-01T02:52:41.125Z,-4.20
2023-03-01T02:53:10.750Z,-4.20
2023-03-01T02:53:40.871Z,-4.10
2023-03-01T02:54:11.388Z,-4.10
2023-03-01T02:54:42.588Z,-4.10
2023-03-01T02:55:14.038Z,-4.10
2023-03-01T02:55:44.537Z,-4.10
2023-03-01T02:56:15.470Z,-4.10
2023-03-01T02:56:46.518Z,-4.20
2023-03-01T02:57:18.406Z,-4.20
2023-03-01T02:57:50.596Z,-4.20
2023-03-01T02:58:20.699Z,-4.20
2023-03-01T02:58:51.331Z,-4.20
2023-03-01T02:59:22.258Z,-4.20
2023-03-01T02:59:52.595Z,-4.20
2023-03-01T03:00:25.496Z,-4.20
2023-03-01T03:00:54.781Z,-4.20
2023-03-01T03:01:25.676Z,-4.20
2023-03-01T03:01:56.661Z,-4.20
2023-03-01T03:02:28.637Z,-4.20
2023-03-01T03:02:59.735Z,-4.20
2023-03-01T03:03:31.077Z,-4.20
2023-03-01T03:04:01.430Z,-4.20
2023-03-01T03:04:31.781Z,-4.20
2023-03-01T03:05:04.345Z,-4.20
2023-03-01T03:05:35.216Z,-4.20
2023-03-01T03:06:04.618Z,-4.20
2023-03-01T03:06:36.359Z,-4.20
2023-03-01T03:07:07.201Z,-4.20
2023-03-01T03:07:41.149Z,-4.20
2023-03-01T03:08:10.196Z,-4.20
2023-03-01T03:08:41.068Z,-4.20
2023-03-01T03:09:11.314Z,-4.20
2023-03-01T03:10:13.618Z,-4.30
2023-03-01T03:11:13.317Z,-4.30
2023-03-01T03:11:43.551Z,-4.30
2023-03-01T03:12:14.823Z,-4.30
2023-03-01T03:13:54.976Z,-4.30
2023-03-01T03:14:18.553Z,-4.30
2023-03-01T03:14:49.853Z,-4.30
2023-03-01T03:15:22.068Z,-4.30
2023-03-01T03:15:51.889Z,-4.30
2023-03-01T03:16:40.609Z,-4.30
2023-03-01T03:16:55.187Z,-4.30
2023-03-01T03:17:26.520Z,-4.30
2023-03-01T03:17:56.686Z,-4.30
2023-03-01T03:18:45.128Z,-4.30
2023-03-01T03:18:57.345Z,-4.30
2023-03-01T03:19:29.494Z,-4.30
2023-03-01T03:19:59.813Z,-4.30
2023-03-01T03:20:30.380Z,-4.30
2023-03-01T03:21:01.725Z,-4.30
2023-03-01T03:21:33.196Z,-4.30
2023-03-01T03:22:17.923Z,-4.30
2023-03-01T03:22:34.625Z,-4.30
2023-03-01T03:23:05.596Z,-4.30
2023-03-01T03:23:48.978Z,-4.30
2023-03-01T03:24:07.509Z,-4.30
2023-03-01T03:24:38.690Z,-4.30
2023-03-01T03:25:09.706Z,-4.30
2023-03-01T03:25:40.397Z,-4.30
2023-03-01T03:26:11.432Z,-4.30
2023-03-01T03:26:42.722Z,-4.30
2023-03-01T03:27:13.600Z,-4.30
2023-03-01T03:27:44.500Z,-4.30
2023-03-01T03:28:15.397Z,-4.30
2023-03-01T03:28:46.279Z,-4.30
2023-03-01T03:29:17.253Z,-4.30
2023-03-01T03:29:48.592Z,-4.40
2023-03-01T03:30:20.128Z,-4.40
2023-03-01T03:30:50.382Z,-4.40
2023-03-01T03:31:21.960Z,-4.40
2023-03-01T03:31:53.138Z,-4.40
2023-03-01T03:32:23.664Z,-4.50
2023-03-01T03:32:54.559Z,-4.50
2023-03-01T03:33:25.419Z,-4.50
2023-03-01T03:34:27.512Z,-4.60
2023-03-01T03:34:58.272Z,-4.60
2023-03-01T03:35:29.557Z,-4.60
2023-03-01T03:36:00.810Z,-4.60
2023-03-01T03:36:32.208Z,-4.60
2023-03-01T03:37:02.614Z,-4.60
2023-03-01T03:37:33.577Z,-4.60
2023-03-01T03:38:04.791Z,-4.60
2023-03-01T03:38:35.197Z,-4.60
2023-03-01T03:39:06.899Z,-4.60
2023-03-01T03:39:37.590Z,-4.60
2023-03-01T03:40:09.026Z,-4.70
2023-03-01T03:40:40.313Z,-4.70
2023-03-01T03:41:10.601Z,-4.70
2023-03-01T03:41:41.612Z,-4.70
2023-03-01T03:42:12.231Z,-4.70
2023-03-01T03:42:43.922Z,-4.70
2023-03-01T03:43:14.639Z,-4.70
2023-03-01T03:43:46.405Z,-4.70
2023-03-01T03:44:16.410Z,-4.80
2023-03-01T03:44:47.393Z,-4.80
2023-03-01T03:45:20.221Z,-4.80
2023-03-01T03:45:49.738Z,-4.80
2023-03-01T03:46:20.388Z,-4.80
2023-03-01T03:46:51.466Z,-4.80
2023-03-01T03:47:22.487Z,-4.80
2023-03-01T03:47:55.376Z,-4.80
2023-03-01T03:48:25.820Z,-4.80
2023-03-01T03:48:55.239Z,-4.80
2023-03-01T03:49:26.561Z,-4.70
2023-03-01T03:49:57.657Z,-4.70
2023-03-01T03:50:28.880Z,-4.70
2023-03-01T03:50:59.714Z,-4.70
2023-03-01T03:51:30.663Z,-4.70
2023-03-01T03:52:01.594Z,-4.70
2023-03-01T03:52:32.500Z,-4.70
2023-03-01T03:53:03.438Z,-4.70
2023-03-01T03:53:35.157Z,-4.70
2023-03-01T03:54:06.101Z,-4.70
2023-03-01T03:54:36.456Z,-4.80
2023-03-01T03:55:07.583Z,-4.80
2023-03-01T03:55:38.520Z,-4.80
2023-03-01T03:56:09.811Z,-4.80
2023-03-01T03:56:41.646Z,-4.80
2023-03-01T03:57:11.911Z,-4.80
2023-03-01T03:57:42.671Z,-4.80
2023-03-01T03:58:13.689Z,-4.90
2023-03-01T03:58:44.929Z,-4.90
2023-03-01T03:59:15.870Z,-4.90
2023-03-01T03:59:46.544Z,-4.90
2023-03-01T04:00:18.520Z,-4.90
2023-03-01T04:00:48.736Z,-4.90
2023-03-01T04:01:20.418Z,-4.90
2023-03-01T04:01:50.702Z,-4.90
2023-03-01T04:02:21.529Z,-4.90
2023-03-01T04:02:52.612Z,-4.90
2023-03-01T04:03:24.043Z,-4.90
2023-03-01T04:03:55.005Z,-4.90
2023-03-01T04:04:25.496Z,-4.90
2023-03-01T04:04:56.723Z,-4.90
2023-03-01T04:05:27.640Z,-4.90
2023-03-01T04:05:58.665Z,-4.90
2023-03-01T04:06:29.970Z,-4.90
2023-03-01T04:07:01.443Z,-4.90
2023-03-01T04:07:31.617Z,-4.90
2023-03-01T04:08:02.717Z,-4.90
2023-03-01T04:08:32.794Z,-4.90
2023-03-01T04:09:04.718Z,-4.90
2023-03-01T04:09:35.435Z,-4.90
2023-03-01T04:10:07.838Z,-5.00
2023-03-01T04:10:37.465Z,-5.00
2023-03-01T04:11:08.903Z,-5.00
2023-03-01T04:11:39.754Z,-5.00
2023-03-01T04:12:10.761Z,-5.00
2023-03-01T04:12:41.717Z,-5.00
2023-03-01T04:13:12.723Z,-5.00
2023-03-01T04:13:43.881Z,-5.00
2023-03-01T04:14:14.742Z,-5.00
2023-03-01T04:14:47.929Z,-5.00
2023-03-01T04:15:16.918Z,-5.00
2023-03-01T04:15:47.601Z,-5.00
2023-03-01T04:16:18.735Z,-5.00
2023-03-01T04:16:49.786Z,-5.00
2023-03-01T04:17:20.882Z,-5.00
2023-03-01T04:17:51.802Z,-5.00
2023-03-01T04:18:22.587Z,-5.00
2023-03-01T04:18:53.766Z,-5.00
2023-03-01T04:19:25.624Z,-5.10
2023-03-01T04:20:27.514Z,-5.10
2023-03-01T04:20:57.960Z,-5.10
2023-03-01T04:21:28.899Z,-5.20
2023-03-01T04:21:59.719Z,-5.20
2023-03-01T04:22:30.835Z,-5.20
2023-03-01T04:23:01.790Z,-5.20
2023-03-01T04:23:33.348Z,-5.20
2023-03-01T04:24:04.316Z,-5.20
2023-03-01T04:24:34.996Z,-5.30
2023-03-01T04:25:05.595Z,-5.30
2023-03-01T04:25:36.957Z,-5.30
2023-03-01T04:26:07.834Z,-5.30
2023-03-01T04:26:38.871Z,-5.30
2023-03-01T04:27:09.795Z,-5.30
2023-03-01T04:27:40.678Z,-5.30
2023-03-01T04:28:11.736Z,-5.30
2023-03-01T04:28:42.923Z,-5.30
2023-03-01T04:29:15.102Z,-5.30
2023-03-01T04:30:17.952Z,-5.40
2023-03-01T04:30:48.506Z,-5.40
2023-03-01T04:31:18.939Z,-5.40
2023-03-01T04:31:50.553Z,-5.40
2023-03-01T04:32:22.002Z,-5.40
2023-03-01T04:32:52.473Z,-5.40
2023-03-01T04:33:23.731Z,-5.40
2023-03-01T04:33:54.915Z,-5.40
2023-03-01T04:34:26.503Z,-5.40
2023-03-01T04:34:58.303Z,-5.40
2023-03-01T04:35:28.436Z,-5.40
2023-03-01T04:35:59.491Z,-5.40
2023-03-01T04:36:31.368Z,-5.40
2023-03-01T04:37:01.461Z,-5.40
2023-03-01T04:37:31.771Z,-5.40
2023-03-01T04:38:03.066Z,-5.40
2023-03-01T04:38:34.039Z,-5.40
2023-03-01T04:39:04.506Z,-5.40
2023-03-01T04:39:34.727Z,-5.40
2023-03-01T04:40:05.745Z,-5.40
2023-03-01T04:40:35.710Z,-5.40
2023-03-01T04:41:06.755Z,-5.40
2023-03-01T04:41:38.378Z,-5.40
2023-03-01T04:42:09.740Z,-5.40
2023-03-01T04:42:40.177Z,-5.40
2023-03-01T04:43:10.892Z,-5.40
2023-03-01T04:43:41.676Z,-5.40
2023-03-01T04:44:12.740Z,-5.30
2023-03-01T04:44:43.642Z,-5.30
2023-03-01T04:45:15.153Z,-5.30
2023-03-01T04:45:45.539Z,-5.30
2023-03-01T04:46:16.787Z,-5.20
2023-03-01T04:46:48.338Z,-5.20
2023-03-01T04:47:54.759Z,-5.20
2023-03-01T04:48:07.744Z,-5.10
2023-03-01T04:48:20.926Z,-5.10
2023-03-01T04:48:51.528Z,-5.10
2023-03-01T04:49:23.329Z,-5.10
2023-03-01T04:49:54.090Z,-5.10
2023-03-01T04:50:25.198Z,-5.10
2023-03-01T04:50:56.490Z,-5.10
2023-03-01T04:51:26.693Z,-5.10
2023-03-01T04:51:59.010Z,-5.20
2023-03-01T04:52:29.267Z,-5.20
2023-03-01T04:53:00.143Z,-5.20
2023-03-01T04:53:31.080Z,-5.20
2023-03-01T04:54:01.672Z,-5.20
2023-03-01T04:54:32.731Z,-5.20
2023-03-01T04:55:03.856Z,-5.20
2023-03-01T04:55:35.331Z,-5.20
2023-03-01T04:56:05.771Z,-5.20
2023-03-01T04:56:36.799Z,-5.20
2023-03-01T04:57:25.027Z,-5.10
2023-03-01T04:57:39.743Z,-5.10
2023-03-01T04:58:09.995Z,-5.00
2023-03-01T04:58:41.046Z,-5.00
2023-03-01T04:59:11.770Z,-5.00
2023-03-01T04:59:42.668Z,-5.00
2023-03-01T05:00:14.791Z,-5.00
2023-03-01T05:00:45.483Z,-4.90
2023-03-01T05:01:15.632Z,-4.90
2023-03-01T05:01:47.638Z,-4.90
2023-03-01T05:02:18.487Z,-4.90
2023-03-01T05:02:52.411Z,-4.90
2023-03-01T05:03:20.284Z,-4.90
2023-03-01T05:03:50.771Z,-4.90
2023-03-01T05:04:21.923Z,-4.90
2023-03-01T05:04:52.844Z,-4.90
2023-03-01T05:06:00.298Z,-4.90
2023-03-01T05:06:26.211Z,-4.90
2023-03-01T05:06:57.920Z,-4.90
2023-03-01T05:07:30.354Z,-4.90
2023-03-01T05:07:59.627Z,-5.00
2023-03-01T05:08:31.133Z,-5.00
2023-03-01T05:09:01.695Z,-5.00
2023-03-01T05:09:32.572Z,-5.10
2023-03-01T05:10:03.387Z,-5.10
2023-03-01T05:10:34.084Z,-5.10
2023-03-01T05:11:05.252Z,-5.10
2023-03-01T05:11:38.127Z,-5.10
2023-03-01T05:12:07.820Z,-5.10
2023-03-01T05:12:38.730Z,-5.20
2023-03-01T05:13:09.093Z,-5.20
2023-03-01T05:13:40.286Z,-5.20
2023-03-01T05:14:10.889Z,-5.20
2023-03-01T05:14:41.591Z,-5.20
2023-03-01T05:15:13.440Z,-5.20
2023-03-01T05:15:44.533Z,-5.20
2023-03-01T05:16:15.082Z,-5.20
2023-03-01T05:16:45.807Z,-5.20
2023-03-01T05:17:17.341Z,-5.20
2023-03-01T05:17:48.851Z,-5.20
2023-03-01T05:18:19.439Z,-5.20
2023-03-01T05:18:50.777Z,-5.30
2023-03-01T05:19:51.895Z,-5.30
2023-03-01T05:20:22.994Z,-5.30
2023-03-01T05:20:54.007Z,-5.30
2023-03-01T05:21:25.265Z,-5.30
2023-03-01T05:21:56.005Z,-5.30
2023-03-01T05:22:29.204Z,-5.30
2023-03-01T05:22:58.513Z,-5.30
2023-03-01T05:23:29.641Z,-5.30
2023-03-01T05:23:59.693Z,-5.40
2023-03-01T05:24:31.000Z,-5.40
2023-03-01T05:25:02.212Z,-5.40
2023-03-01T05:25:32.696Z,-5.40
2023-03-01T05:26:04.303Z,-5.40
2023-03-01T05:26:35.059Z,-5.40
2023-03-01T05:27:23.131Z,-5.50
2023-03-01T05:27:38.885Z,-5.50
2023-03-01T05:28:08.176Z,-5.50
2023-03-01T05:28:39.084Z,-5.50
2023-03-01T05:29:09.911Z,-5.60
2023-03-01T05:29:40.999Z,-5.60
2023-03-01T05:30:13.495Z,-5.60
2023-03-01T05:30:43.035Z,-5.60
2023-03-01T05:31:14.310Z,-5.60
2023-03-01T05:31:45.521Z,-5.60
2023-03-01T05:32:15.957Z,-5.60
2023-03-01T05:32:48.347Z,-5.60
2023-03-01T05:33:18.559Z,-5.60
2023-03-01T05:33:49.624Z,-5.70
2023-03-01T05:34:19.725Z,-5.70
2023-03-01T05:34:51.241Z,-5.70
2023-03-01T05:35:23.217Z,-5.70
2023-03-01T05:35:53.211Z,-5.70
2023-03-01T05:36:24.332Z,-5.70
2023-03-01T05:36:55.325Z,-5.70
2023-03-01T05:37:26.363Z,-5.70
2023-03-01T05:37:57.730Z,-5.70
2023-03-01T05:38:28.663Z,-5.70
2023-03-01T05:39:06.197Z,-5.70
2023-03-01T05:39:29.799Z,-5.70
2023-03-01T05:40:01.348Z,-5.70
2023-03-01T05:40:32.570Z,-5.70
2023-03-01T05:41:03.395Z,-5.70
2023-03-01T05:41:34.274Z,-5.70
2023-03-01T05:42:05.438Z,-5.70
2023-03-01T05:42:36.149Z,-5.70
2023-03-01T05:43:08.061Z,-5.70
2023-03-01T05:43:38.851Z,-5.70
2023-03-01T05:44:09.003Z,-5.70
2023-03-01T05:44:43.412Z,-5.70
2023-03-01T05:45:14.394Z,-5.70
2023-03-01T05:45:42.050Z,-5.60
2023-03-01T05:46:13.399Z,-5.60
2023-03-01T05:46:43.882Z,-5.60
2023-03-01T05:47:15.633Z,-5.60
2023-03-01T05:47:47.229Z,-5.50
2023-03-01T05:48:17.984Z,-5.40
2023-03-01T05:48:48.766Z,-5.40
2023-03-01T05:49:19.427Z,-5.40
2023-03-01T05:49:50.418Z,-5.30
2023-03-01T05:50:21.247Z,-5.30
2023-03-01T05:50:51.899Z,-5.30
2023-03-01T05:51:22.804Z,-5.30
2023-03-01T05:51:53.907Z,-5.30
2023-03-01T05:52:25.773Z,-5.30
2023-03-01T05:52:56.351Z,-5.30
2023-03-01T05:53:28.007Z,-5.30
2023-03-01T05:53:58.766Z,-5.20
2023-03-01T05:54:29.175Z,-5.10
2023-03-01T05:55:01.546Z,-5.10
2023-03-01T05:55:31.517Z,-5.10
2023-03-01T05:56:01.837Z,-5.00
2023-03-01T05:56:33.289Z,-5.00
2023-03-01T05:57:04.660Z,-4.90
2023-03-01T05:57:35.189Z,-4.90
2023-03-01T05:58:07.235Z,-4.90
2023-03-01T05:58:37.977Z,-4.80
2023-03-01T05:59:08.723Z,-4.80
2023-03-01T05:59:39.397Z,-4.70
2023-03-01T06:00:12.257Z,-4.70
2023-03-01T06:00:41.032Z,-4.70
2023-03-01T06:01:12.151Z,-4.70
2023-03-01T06:01:43.067Z,-4.70
2023-03-01T06:02:14.188Z,-4.70
2023-03-01T06:03:16.616Z,-4.70
2023-03-01T06:03:48.052Z,-4.70
2023-03-01T06:04:18.792Z,-4.70
2023-03-01T06:04:49.537Z,-4.70
2023-03-01T06:05:38.242Z,-4.70
2023-03-01T06:05:51.291Z,-4.70
2023-03-01T06:06:21.970Z,-4.70
2023-03-01T06:06:53.057Z,-4.70
2023-03-01T06:07:24.592Z,-4.70
2023-03-01T06:07:55.108Z,-4.70
2023-03-01T06:08:26.354Z,-4.70
2023-03-01T06:08:59.364Z,-4.70
2023-03-01T06:09:28.809Z,-4.70
2023-03-01T06:09:59.873Z,-4.70
2023-03-01T06:10:30.409Z,-4.70
2023-03-01T06:11:01.010Z,-4.70
2023-03-01T06:11:32.891Z,-4.70
2023-03-01T06:12:03.093Z,-4.70
2023-03-01T06:12:34.514Z,-4.70
2023-03-01T06:13:05.321Z,-4.70
2023-03-01T06:13:36.043Z,-4.70
2023-03-01T06:14:08.573Z,-4.70
2023-03-01T06:14:38.860Z,-4.70
2023-03-01T06:15:10.253Z,-4.70
2023-03-01T06:15:40.435Z,-4.70
2023-03-01T06:18:33.150Z,-4.70
2023-03-01T06:18:46.053Z,-4.60
2023-03-01T06:19:17.812Z,-4.60
2023-03-01T06:19:48.605Z,-4.60
2023-03-01T06:20:27.528Z,-4.60
2023-03-01T06:20:51.948Z,-4.70
2023-03-01T06:21:21.443Z,-4.70
2023-03-01T06:21:52.161Z,-4.70
2023-03-01T06:22:23.246Z,-4.70
2023-03-01T06:22:54.279Z,-4.70
2023-03-01T06:23:25.184Z,-4.70
2023-03-01T06:23:56.146Z,-4.70
2023-03-01T06:24:33.026Z,-4.70
2023-03-01T06:24:58.938Z,-4.70
2023-03-01T06:25:49.529Z,-4.70
2023-03-01T06:26:00.357Z,-4.80
2023-03-01T06:26:32.192Z,-4.80
2023-03-01T06:27:02.185Z,-4.80
2023-03-01T06:27:35.249Z,-4.80
2023-03-01T06:28:04.169Z,-4.80
2023-03-01T06:28:35.175Z,-4.80
2023-03-01T06:29:05.965Z,-4.80
2023-03-01T06:29:38.527Z,-4.80
2023-03-01T06:30:21.658Z,-4.80
2023-03-01T06:30:39.314Z,-4.80
2023-03-01T06:31:10.273Z,-4.80
2023-03-01T06:31:41.115Z,-4.80
2023-03-01T06:32:12.219Z,-4.80
2023-03-01T06:32:43.964Z,-4.80
2023-03-01T06:33:14.604Z,-4.80
2023-03-01T06:33:45.200Z,-4.80
2023-03-01T06:34:16.204Z,-4.80
2023-03-01T06:34:47.582Z,-4.80
2023-03-01T06:35:49.536Z,-4.70
2023-03-01T06:36:20.352Z,-4.70
2023-03-01T06:36:51.368Z,-4.70
2023-03-01T06:37:22.606Z,-4.70
2023-03-01T06:37:53.227Z,-4.70
2023-03-01T06:38:24.599Z,-4.70
2023-03-01T06:38:55.573Z,-4.70
2023-03-01T06:39:26.392Z,-4.70
2023-03-01T06:39:58.206Z,-4.70
2023-03-01T06:40:29.567Z,-4.70
2023-03-01T06:41:19.422Z,-4.70
2023-03-01T06:41:31.294Z,-4.70
2023-03-01T06:42:02.008Z,-4.70
2023-03-01T06:42:32.561Z,-4.70
2023-03-01T06:43:09.530Z,-4.70
2023-03-01T06:43:34.662Z,-4.70
2023-03-01T06:44:05.449Z,-4.70
2023-03-01T06:44:36.535Z,-4.60
2023-03-01T06:45:09.413Z,-4.60
2023-03-01T06:45:39.370Z,-4.60
2023-03-01T06:46:10.461Z,-4.50
2023-03-01T06:46:41.296Z,-4.50
2023-03-01T06:47:12.085Z,-4.40
2023-03-01T06:48:13.386Z,-4.30
2023-03-01T06:48:44.232Z,-4.30
2023-03-01T06:49:15.230Z,-4.30
2023-03-01T06:50:03.668Z,-4.20
2023-03-01T06:50:17.945Z,-4.20
2023-03-01T06:50:49.495Z,-4.20
2023-03-01T06:51:20.037Z,-4.20
2023-03-01T06:51:50.789Z,-4.10
2023-03-01T06:52:21.947Z,-4.10
2023-03-01T06:52:52.524Z,-4.00
2023-03-01T06:53:23.233Z,-4.00
2023-03-01T06:53:54.944Z,-4.00
2023-03-01T06:54:25.742Z,-3.90
2023-03-01T06:54:56.487Z,-3.90
2023-03-01T06:55:27.786Z,-3.90
2023-03-01T06:55:59.038Z,-3.90